sensor_id;sensor_type;location;lat;lon;timestamp;pressure;altitude;pressure_sealevel;temperature;humidity
71873;BME280;59745;52.924;-2.388;2022-09-09T00:02:58;98022.47;;;23.85;33.90
71873;BME280;59745;52.924;-2.388;2022-09-09T00:05:21;98024.91;;;24.00;33.35
71873;BME280;59745;52.924;-2.388;2022-09-09T00:07:45;98027.47;;;24.69;33.30
71873;BME280;59745;52.924;-2.388;2022-09-09T00:10:15;98028.41;;;24.64;34.40
71873;BME280;59745;52.924;-2.388;2022-09-09T00:12:35;98027.07;;;23.78;35.52
71873;BME280;59745;52.924;-2.388;2022-09-09T00:15:00;98030.76;;;23.69;36.11
71873;BME280;59745;52.924;-2.388;2022-09-09T00:17:31;98028.93;;;23.60;36.27
71873;BME280;59745;52.924;-2.388;2022-09-09T00:19:50;98029.47;;;22.85;37.11
71873;BME280;59745;52.924;-2.388;2022-09-09T00:22:17;98027.45;;;22.97;37.51
71873;BME280;59745;52.924;-2.388;2022-09-09T00:24:41;98027.40;;;22.75;37.97
71873;BME280;59745;52.924;-2.388;2022-09-09T00:27:08;98027.86;;;23.15;37.56
71873;BME280;59745;52.924;-2.388;2022-09-09T00:29:34;98031.10;;;23.14;37.18
71873;BME280;59745;52.924;-2.388;2022-09-09T00:31:54;98029.51;;;23.11;37.61
71873;BME280;59745;52.924;-2.388;2022-09-09T00:34:21;98033.83;;;22.63;38.49
71873;BME280;59745;52.924;-2.388;2022-09-09T00:36:45;98031.10;;;22.94;38.33
71873;BME280;59745;52.924;-2.388;2022-09-09T00:39:22;98032.59;;;22.87;38.35
71873;BME280;59745;52.924;-2.388;2022-09-09T00:41:44;98034.71;;;22.97;38.61
71873;BME280;59745;52.924;-2.388;2022-09-09T00:44:08;98037.13;;;22.25;39.63
71873;BME280;59745;52.924;-2.388;2022-09-09T00:46:41;98035.19;;;22.22;40.02
71873;BME280;59745;52.924;-2.388;2022-09-09T00:48:59;98036.02;;;22.69;40.17
71873;BME280;59745;52.924;-2.388;2022-09-09T00:51:25;98040.83;;;22.19;40.56
71873;BME280;59745;52.924;-2.388;2022-09-09T00:56:12;98036.14;;;22.39;40.99
71873;BME280;59745;52.924;-2.388;2022-09-09T00:58:32;98033.48;;;22.53;40.40
71873;BME280;59745;52.924;-2.388;2022-09-09T01:01:02;98033.97;;;22.40;40.51
71873;BME280;59745;52.924;-2.388;2022-09-09T01:03:31;98033.15;;;22.43;40.83
71873;BME280;59745;52.924;-2.388;2022-09-09T01:05:56;98034.88;;;22.43;40.70
71873;BME280;59745;52.924;-2.388;2022-09-09T01:08:24;98037.83;;;22.35;40.42
71873;BME280;59745;52.924;-2.388;2022-09-09T01:10:44;98037.28;;;22.61;40.66
71873;BME280;59745;52.924;-2.388;2022-09-09T01:13:11;98037.00;;;22.47;40.86
71873;BME280;59745;52.924;-2.388;2022-09-09T01:15:31;98037.37;;;22.49;40.52
71873;BME280;59745;52.924;-2.388;2022-09-09T01:18:01;98039.34;;;22.87;39.92
71873;BME280;59745;52.924;-2.388;2022-09-09T01:20:24;98041.54;;;22.85;39.77
71873;BME280;59745;52.924;-2.388;2022-09-09T01:22:57;98042.15;;;22.59;39.61
71873;BME280;59745;52.924;-2.388;2022-09-09T01:25:22;98045.81;;;22.60;40.11
71873;BME280;59745;52.924;-2.388;2022-09-09T01:27:37;98050.09;;;22.43;40.38
71873;BME280;59745;52.924;-2.388;2022-09-09T01:30:07;98049.57;;;22.49;40.72
71873;BME280;59745;52.924;-2.388;2022-09-09T01:32:41;98052.02;;;22.42;40.80
71873;BME280;59745;52.924;-2.388;2022-09-09T01:34:54;98054.23;;;22.43;40.61
71873;BME280;59745;52.924;-2.388;2022-09-09T01:37:19;98051.69;;;22.11;40.76
71873;BME280;59745;52.924;-2.388;2022-09-09T01:39:44;98053.26;;;22.44;40.80
71873;BME280;59745;52.924;-2.388;2022-09-09T01:42:12;98056.81;;;22.36;40.77
71873;BME280;59745;52.924;-2.388;2022-09-09T01:44:36;98058.68;;;22.72;40.51
71873;BME280;59745;52.924;-2.388;2022-09-09T01:47:00;98060.58;;;22.71;40.32
71873;BME280;59745;52.924;-2.388;2022-09-09T01:49:26;98060.54;;;22.76;40.18
71873;BME280;59745;52.924;-2.388;2022-09-09T01:51:54;98061.90;;;22.91;39.94
71873;BME280;59745;52.924;-2.388;2022-09-09T01:54:16;98064.02;;;23.05;39.67
71873;BME280;59745;52.924;-2.388;2022-09-09T01:56:49;98061.51;;;22.97;39.75
71873;BME280;59745;52.924;-2.388;2022-09-09T01:59:18;98060.04;;;23.22;39.46
71873;BME280;59745;52.924;-2.388;2022-09-09T02:01:42;98059.86;;;23.33;38.76
71873;BME280;59745;52.924;-2.388;2022-09-09T02:04:02;98058.48;;;23.32;38.78
71873;BME280;59745;52.924;-2.388;2022-09-09T02:06:28;98058.06;;;23.09;39.04
71873;BME280;59745;52.924;-2.388;2022-09-09T02:08:50;98052.93;;;23.30;38.97
71873;BME280;59745;52.924;-2.388;2022-09-09T02:11:16;98052.42;;;23.19;39.15
71873;BME280;59745;52.924;-2.388;2022-09-09T02:13:42;98051.73;;;23.41;38.87
71873;BME280;59745;52.924;-2.388;2022-09-09T02:16:08;98051.79;;;23.09;38.89
71873;BME280;59745;52.924;-2.388;2022-09-09T02:18:33;98050.92;;;23.08;39.00
71873;BME280;59745;52.924;-2.388;2022-09-09T02:20:56;98054.30;;;23.32;39.08
71873;BME280;59745;52.924;-2.388;2022-09-09T02:23:21;98056.60;;;23.37;39.12
71873;BME280;59745;52.924;-2.388;2022-09-09T02:25:46;98057.60;;;23.21;39.07
71873;BME280;59745;52.924;-2.388;2022-09-09T02:28:12;98057.66;;;23.28;39.01
71873;BME280;59745;52.924;-2.388;2022-09-09T02:30:38;98057.67;;;23.29;38.91
71873;BME280;59745;52.924;-2.388;2022-09-09T02:33:05;98056.28;;;23.61;38.75
71873;BME280;59745;52.924;-2.388;2022-09-09T02:35:29;98055.88;;;23.77;38.49
71873;BME280;59745;52.924;-2.388;2022-09-09T02:37:55;98055.95;;;23.63;37.96
71873;BME280;59745;52.924;-2.388;2022-09-09T02:40:19;98055.59;;;23.57;37.92
71873;BME280;59745;52.924;-2.388;2022-09-09T02:42:46;98058.50;;;23.47;37.97
71873;BME280;59745;52.924;-2.388;2022-09-09T02:45:11;98058.45;;;23.18;38.09
71873;BME280;59745;52.924;-2.388;2022-09-09T02:47:35;98059.04;;;23.85;37.84
71873;BME280;59745;52.924;-2.388;2022-09-09T02:50:08;98058.46;;;23.41;38.02
71873;BME280;59745;52.924;-2.388;2022-09-09T02:52:36;98060.19;;;23.58;37.74
71873;BME280;59745;52.924;-2.388;2022-09-09T02:54:57;98058.60;;;23.27;37.67
71873;BME280;59745;52.924;-2.388;2022-09-09T02:57:19;98056.72;;;23.50;37.64
71873;BME280;59745;52.924;-2.388;2022-09-09T02:59:41;98056.70;;;23.44;37.57
71873;BME280;59745;52.924;-2.388;2022-09-09T03:02:06;98061.72;;;23.28;37.83
71873;BME280;59745;52.924;-2.388;2022-09-09T03:04:31;98062.45;;;23.51;37.88
71873;BME280;59745;52.924;-2.388;2022-09-09T03:06:57;98063.29;;;23.17;38.20
71873;BME280;59745;52.924;-2.388;2022-09-09T03:09:22;98065.62;;;23.34;38.27
71873;BME280;59745;52.924;-2.388;2022-09-09T03:11:47;98067.54;;;23.34;38.41
71873;BME280;59745;52.924;-2.388;2022-09-09T03:14:12;98068.84;;;23.02;38.54
71873;BME280;59745;52.924;-2.388;2022-09-09T03:16:37;98065.22;;;23.03;38.63
71873;BME280;59745;52.924;-2.388;2022-09-09T03:19:02;98066.46;;;22.98;38.68
71873;BME280;59745;52.924;-2.388;2022-09-09T03:21:28;98069.43;;;23.15;38.84
71873;BME280;59745;52.924;-2.388;2022-09-09T03:23:58;98067.69;;;23.20;38.87
71873;BME280;59745;52.924;-2.388;2022-09-09T03:26:19;98066.99;;;22.97;38.86
71873;BME280;59745;52.924;-2.388;2022-09-09T03:28:44;98067.52;;;23.27;38.78
71873;BME280;59745;52.924;-2.388;2022-09-09T03:31:10;98069.38;;;23.14;38.67
71873;BME280;59745;52.924;-2.388;2022-09-09T03:33:35;98070.99;;;23.21;38.48
71873;BME280;59745;52.924;-2.388;2022-09-09T03:36:01;98072.11;;;23.12;38.58
71873;BME280;59745;52.924;-2.388;2022-09-09T03:38:26;98072.38;;;23.19;38.43
71873;BME280;59745;52.924;-2.388;2022-09-09T03:40:53;98074.03;;;23.35;38.47
71873;BME280;59745;52.924;-2.388;2022-09-09T03:43:17;98075.06;;;23.39;38.22
71873;BME280;59745;52.924;-2.388;2022-09-09T03:45:45;98074.98;;;23.43;38.17
71873;BME280;59745;52.924;-2.388;2022-09-09T03:48:07;98073.05;;;23.45;37.99
71873;BME280;59745;52.924;-2.388;2022-09-09T03:50:33;98079.07;;;23.29;38.20
71873;BME280;59745;52.924;-2.388;2022-09-09T03:52:58;98080.91;;;22.90;38.19
71873;BME280;59745;52.924;-2.388;2022-09-09T03:55:24;98082.18;;;23.31;38.33
71873;BME280;59745;52.924;-2.388;2022-09-09T03:57:49;98079.04;;;23.14;38.34
71873;BME280;59745;52.924;-2.388;2022-09-09T04:00:24;98079.48;;;23.51;38.19
71873;BME280;59745;52.924;-2.388;2022-09-09T04:02:40;98083.47;;;23.25;38.10
71873;BME280;59745;52.924;-2.388;2022-09-09T04:05:06;98082.92;;;23.21;38.15
71873;BME280;59745;52.924;-2.388;2022-09-09T04:07:31;98084.63;;;23.22;38.13
71873;BME280;59745;52.924;-2.388;2022-09-09T04:09:57;98088.24;;;23.43;38.25
71873;BME280;59745;52.924;-2.388;2022-09-09T04:12:22;98088.31;;;23.28;38.17
71873;BME280;59745;52.924;-2.388;2022-09-09T04:14:48;98092.09;;;23.36;38.01
71873;BME280;59745;52.924;-2.388;2022-09-09T04:17:12;98092.41;;;23.48;38.02
71873;BME280;59745;52.924;-2.388;2022-09-09T04:19:38;98094.47;;;23.34;37.92
71873;BME280;59745;52.924;-2.388;2022-09-09T04:22:04;98098.54;;;23.21;37.40
71873;BME280;59745;52.924;-2.388;2022-09-09T04:24:29;98096.21;;;23.54;37.65
71873;BME280;59745;52.924;-2.388;2022-09-09T04:26:54;98095.90;;;23.55;37.80
71873;BME280;59745;52.924;-2.388;2022-09-09T04:29:19;98096.48;;;23.36;37.80
71873;BME280;59745;52.924;-2.388;2022-09-09T04:31:45;98096.13;;;23.48;37.60
71873;BME280;59745;52.924;-2.388;2022-09-09T04:34:10;98096.32;;;23.67;37.67
71873;BME280;59745;52.924;-2.388;2022-09-09T04:36:36;98095.94;;;23.37;37.73
71873;BME280;59745;52.924;-2.388;2022-09-09T04:39:02;98093.41;;;23.19;37.57
71873;BME280;59745;52.924;-2.388;2022-09-09T04:41:27;98090.64;;;23.45;37.51
71873;BME280;59745;52.924;-2.388;2022-09-09T04:43:53;98092.95;;;23.30;37.35
71873;BME280;59745;52.924;-2.388;2022-09-09T04:46:19;98091.74;;;23.40;37.49
71873;BME280;59745;52.924;-2.388;2022-09-09T04:48:44;98094.15;;;23.30;37.28
71873;BME280;59745;52.924;-2.388;2022-09-09T04:51:11;98095.14;;;23.70;37.33
71873;BME280;59745;52.924;-2.388;2022-09-09T04:53:34;98095.30;;;23.48;37.28
71873;BME280;59745;52.924;-2.388;2022-09-09T04:56:02;98095.47;;;23.59;37.53
71873;BME280;59745;52.924;-2.388;2022-09-09T04:58:25;98095.78;;;23.34;37.61
71873;BME280;59745;52.924;-2.388;2022-09-09T05:00:51;98099.26;;;23.33;37.07
71873;BME280;59745;52.924;-2.388;2022-09-09T05:03:16;98101.37;;;23.52;37.43
71873;BME280;59745;52.924;-2.388;2022-09-09T05:05:41;98102.61;;;23.23;37.71
71873;BME280;59745;52.924;-2.388;2022-09-09T05:08:07;98107.66;;;23.24;37.83
71873;BME280;59745;52.924;-2.388;2022-09-09T05:10:32;98109.30;;;23.36;38.03
71873;BME280;59745;52.924;-2.388;2022-09-09T05:12:57;98115.06;;;23.37;38.17
71873;BME280;59745;52.924;-2.388;2022-09-09T05:15:22;98117.04;;;23.38;38.33
71873;BME280;59745;52.924;-2.388;2022-09-09T05:17:48;98117.66;;;23.54;38.14
71873;BME280;59745;52.924;-2.388;2022-09-09T05:20:13;98118.96;;;23.23;38.13
71873;BME280;59745;52.924;-2.388;2022-09-09T05:22:38;98123.27;;;23.38;38.23
71873;BME280;59745;52.924;-2.388;2022-09-09T05:25:04;98125.51;;;23.08;38.35
71873;BME280;59745;52.924;-2.388;2022-09-09T05:27:29;98124.57;;;23.21;38.26
71873;BME280;59745;52.924;-2.388;2022-09-09T05:29:54;98131.29;;;23.13;38.28
71873;BME280;59745;52.924;-2.388;2022-09-09T05:32:20;98130.16;;;23.31;38.46
71873;BME280;59745;52.924;-2.388;2022-09-09T05:34:46;98130.29;;;23.32;38.54
71873;BME280;59745;52.924;-2.388;2022-09-09T05:37:11;98130.61;;;23.20;38.46
71873;BME280;59745;52.924;-2.388;2022-09-09T05:39:36;98131.96;;;23.44;38.43
71873;BME280;59745;52.924;-2.388;2022-09-09T05:42:02;98131.39;;;23.66;38.07
71873;BME280;59745;52.924;-2.388;2022-09-09T05:44:27;98133.67;;;23.34;38.03
71873;BME280;59745;52.924;-2.388;2022-09-09T05:46:52;98137.90;;;23.57;38.05
71873;BME280;59745;52.924;-2.388;2022-09-09T05:49:18;98138.80;;;23.46;37.73
71873;BME280;59745;52.924;-2.388;2022-09-09T05:51:43;98140.46;;;23.43;37.80
71873;BME280;59745;52.924;-2.388;2022-09-09T05:54:09;98143.36;;;23.42;38.04
71873;BME280;59745;52.924;-2.388;2022-09-09T05:56:34;98146.61;;;23.38;38.30
71873;BME280;59745;52.924;-2.388;2022-09-09T05:59:00;98146.89;;;23.33;38.14
71873;BME280;59745;52.924;-2.388;2022-09-09T06:01:26;98151.12;;;23.26;38.24
71873;BME280;59745;52.924;-2.388;2022-09-09T06:03:59;98151.31;;;23.31;38.32
71873;BME280;59745;52.924;-2.388;2022-09-09T06:06:17;98149.42;;;23.42;38.06
71873;BME280;59745;52.924;-2.388;2022-09-09T06:08:42;98153.10;;;23.20;38.34
71873;BME280;59745;52.924;-2.388;2022-09-09T06:11:09;98153.82;;;23.75;37.97
71873;BME280;59745;52.924;-2.388;2022-09-09T06:13:32;98157.52;;;23.53;38.36
71873;BME280;59745;52.924;-2.388;2022-09-09T06:15:58;98159.50;;;23.21;38.51
71873;BME280;59745;52.924;-2.388;2022-09-09T06:18:23;98158.51;;;23.60;38.56
71873;BME280;59745;52.924;-2.388;2022-09-09T06:20:55;98159.18;;;23.23;38.82
71873;BME280;59745;52.924;-2.388;2022-09-09T06:23:14;98159.92;;;23.45;38.52
71873;BME280;59745;52.924;-2.388;2022-09-09T06:25:40;98162.33;;;23.67;38.53
71873;BME280;59745;52.924;-2.388;2022-09-09T06:28:06;98164.63;;;23.81;38.24
71873;BME280;59745;52.924;-2.388;2022-09-09T06:30:31;98169.01;;;23.51;38.69
71873;BME280;59745;52.924;-2.388;2022-09-09T06:32:56;98173.55;;;23.44;38.73
71873;BME280;59745;52.924;-2.388;2022-09-09T06:35:22;98178.66;;;23.56;38.74
71873;BME280;59745;52.924;-2.388;2022-09-09T06:37:47;98183.02;;;23.14;38.67
71873;BME280;59745;52.924;-2.388;2022-09-09T06:40:12;98187.68;;;23.73;38.63
71873;BME280;59745;52.924;-2.388;2022-09-09T06:42:37;98189.42;;;23.33;38.25
71873;BME280;59745;52.924;-2.388;2022-09-09T06:45:03;98188.28;;;23.26;38.56
71873;BME280;59745;52.924;-2.388;2022-09-09T06:47:28;98188.66;;;23.34;38.68
71873;BME280;59745;52.924;-2.388;2022-09-09T06:49:54;98189.88;;;23.34;38.86
71873;BME280;59745;52.924;-2.388;2022-09-09T06:52:19;98191.60;;;23.65;38.72
71873;BME280;59745;52.924;-2.388;2022-09-09T06:54:44;98190.42;;;23.47;38.82
71873;BME280;59745;52.924;-2.388;2022-09-09T06:57:09;98195.14;;;23.38;38.94
71873;BME280;59745;52.924;-2.388;2022-09-09T06:59:35;98199.03;;;23.64;38.87
71873;BME280;59745;52.924;-2.388;2022-09-09T07:02:00;98199.72;;;23.47;38.97
71873;BME280;59745;52.924;-2.388;2022-09-09T07:04:26;98204.11;;;23.31;38.78
71873;BME280;59745;52.924;-2.388;2022-09-09T07:06:51;98204.00;;;23.80;38.65
71873;BME280;59745;52.924;-2.388;2022-09-09T07:09:17;98204.10;;;22.96;38.56
71873;BME280;59745;52.924;-2.388;2022-09-09T07:11:43;98205.97;;;24.15;37.27
71873;BME280;59745;52.924;-2.388;2022-09-09T07:14:09;98209.14;;;24.51;36.72
71873;BME280;59745;52.924;-2.388;2022-09-09T07:16:33;98213.82;;;24.55;36.78
71873;BME280;59745;52.924;-2.388;2022-09-09T07:18:59;98215.57;;;24.24;37.36
71873;BME280;59745;52.924;-2.388;2022-09-09T07:21:25;98212.62;;;24.02;37.53
71873;BME280;59745;52.924;-2.388;2022-09-09T07:23:49;98216.04;;;23.88;38.01
71873;BME280;59745;52.924;-2.388;2022-09-09T07:26:17;98218.70;;;23.72;38.37
71873;BME280;59745;52.924;-2.388;2022-09-09T07:28:41;98218.57;;;24.05;38.06
71873;BME280;59745;52.924;-2.388;2022-09-09T07:31:06;98221.68;;;24.00;37.79
71873;BME280;59745;52.924;-2.388;2022-09-09T07:33:32;98222.19;;;23.88;38.02
71873;BME280;59745;52.924;-2.388;2022-09-09T07:36:03;98222.74;;;24.15;37.97
71873;BME280;59745;52.924;-2.388;2022-09-09T07:38:23;98224.54;;;24.13;38.27
71873;BME280;59745;52.924;-2.388;2022-09-09T07:40:47;98226.72;;;24.40;38.45
71873;BME280;59745;52.924;-2.388;2022-09-09T07:43:13;98227.55;;;24.25;38.25
71873;BME280;59745;52.924;-2.388;2022-09-09T07:45:38;98227.62;;;24.44;38.18
71873;BME280;59745;52.924;-2.388;2022-09-09T07:48:04;98230.21;;;24.62;37.58
71873;BME280;59745;52.924;-2.388;2022-09-09T07:50:29;98236.46;;;24.17;37.89
71873;BME280;59745;52.924;-2.388;2022-09-09T07:52:54;98238.22;;;24.61;37.83
71873;BME280;59745;52.924;-2.388;2022-09-09T07:55:19;98239.89;;;24.50;37.91
71873;BME280;59745;52.924;-2.388;2022-09-09T07:57:45;98245.08;;;24.66;36.88
71873;BME280;59745;52.924;-2.388;2022-09-09T08:00:12;98249.55;;;24.60;36.71
71873;BME280;59745;52.924;-2.388;2022-09-09T08:02:35;98252.26;;;24.71;36.84
71873;BME280;59745;52.924;-2.388;2022-09-09T08:05:01;98254.05;;;24.92;36.77
71873;BME280;59745;52.924;-2.388;2022-09-09T08:07:26;98258.15;;;24.75;36.91
71873;BME280;59745;52.924;-2.388;2022-09-09T08:09:52;98255.45;;;24.63;37.00
71873;BME280;59745;52.924;-2.388;2022-09-09T08:12:17;98257.86;;;24.95;36.88
71873;BME280;59745;52.924;-2.388;2022-09-09T08:14:43;98260.09;;;24.97;35.84
71873;BME280;59745;52.924;-2.388;2022-09-09T08:17:08;98258.89;;;24.96;35.91
71873;BME280;59745;52.924;-2.388;2022-09-09T08:19:33;98260.78;;;24.76;37.06
71873;BME280;59745;52.924;-2.388;2022-09-09T08:21:58;98263.12;;;24.81;37.66
71873;BME280;59745;52.924;-2.388;2022-09-09T08:24:24;98267.84;;;25.26;37.28
71873;BME280;59745;52.924;-2.388;2022-09-09T08:26:50;98269.73;;;24.90;36.99
71873;BME280;59745;52.924;-2.388;2022-09-09T08:29:15;98268.04;;;25.52;35.06
71873;BME280;59745;52.924;-2.388;2022-09-09T08:31:43;98269.84;;;25.27;35.41
71873;BME280;59745;52.924;-2.388;2022-09-09T08:34:07;98273.25;;;25.15;36.68
71873;BME280;59745;52.924;-2.388;2022-09-09T08:36:33;98269.33;;;25.39;35.19
71873;BME280;59745;52.924;-2.388;2022-09-09T08:38:57;98273.08;;;25.57;35.30
71873;BME280;59745;52.924;-2.388;2022-09-09T08:41:41;98272.89;;;24.96;36.80
71873;BME280;59745;52.924;-2.388;2022-09-09T08:43:50;98273.31;;;24.86;37.50
71873;BME280;59745;52.924;-2.388;2022-09-09T08:46:17;98279.52;;;24.94;37.93
71873;BME280;59745;52.924;-2.388;2022-09-09T08:48:46;98280.07;;;24.97;37.65
71873;BME280;59745;52.924;-2.388;2022-09-09T08:51:04;98279.05;;;25.06;37.32
71873;BME280;59745;52.924;-2.388;2022-09-09T08:53:33;98284.75;;;25.25;37.22
71873;BME280;59745;52.924;-2.388;2022-09-09T08:55:55;98286.31;;;25.56;36.88
71873;BME280;59745;52.924;-2.388;2022-09-09T08:58:21;98285.35;;;25.59;36.01
71873;BME280;59745;52.924;-2.388;2022-09-09T09:00:58;98291.31;;;25.93;35.48
71873;BME280;59745;52.924;-2.388;2022-09-09T09:03:18;98290.77;;;25.87;35.60
71873;BME280;59745;52.924;-2.388;2022-09-09T09:05:39;98294.61;;;25.86;35.76
71873;BME280;59745;52.924;-2.388;2022-09-09T09:08:08;98297.41;;;25.45;36.08
71873;BME280;59745;52.924;-2.388;2022-09-09T09:10:36;98298.83;;;26.27;35.45
71873;BME280;59745;52.924;-2.388;2022-09-09T09:12:53;98300.78;;;26.13;35.57
71873;BME280;59745;52.924;-2.388;2022-09-09T09:15:22;98304.81;;;25.94;35.71
71873;BME280;59745;52.924;-2.388;2022-09-09T09:17:43;98309.71;;;26.16;34.82
71873;BME280;59745;52.924;-2.388;2022-09-09T09:20:13;98314.35;;;26.23;34.70
71873;BME280;59745;52.924;-2.388;2022-09-09T09:22:39;98320.53;;;26.12;35.04
71873;BME280;59745;52.924;-2.388;2022-09-09T09:25:05;98324.69;;;25.96;35.03
71873;BME280;59745;52.924;-2.388;2022-09-09T09:27:31;98327.78;;;25.88;35.20
71873;BME280;59745;52.924;-2.388;2022-09-09T09:29:54;98330.02;;;25.91;35.31
71873;BME280;59745;52.924;-2.388;2022-09-09T09:32:19;98334.58;;;25.76;35.63
71873;BME280;59745;52.924;-2.388;2022-09-09T09:34:42;98337.42;;;25.70;35.57
71873;BME280;59745;52.924;-2.388;2022-09-09T09:37:14;98339.90;;;25.45;35.34
71873;BME280;59745;52.924;-2.388;2022-09-09T09:39:33;98344.62;;;25.52;35.78
71873;BME280;59745;52.924;-2.388;2022-09-09T09:41:58;98347.06;;;25.64;35.74
71873;BME280;59745;52.924;-2.388;2022-09-09T09:44:26;98348.66;;;25.64;35.68
71873;BME280;59745;52.924;-2.388;2022-09-09T09:46:49;98352.22;;;25.76;35.75
71873;BME280;59745;52.924;-2.388;2022-09-09T09:49:14;98358.11;;;25.52;35.89
71873;BME280;59745;52.924;-2.388;2022-09-09T09:51:39;98360.91;;;25.69;35.33
71873;BME280;59745;52.924;-2.388;2022-09-09T09:54:12;98364.95;;;25.84;35.53
71873;BME280;59745;52.924;-2.388;2022-09-09T09:56:30;98366.70;;;25.42;35.65
71873;BME280;59745;52.924;-2.388;2022-09-09T09:58:56;98370.65;;;25.87;35.70
71873;BME280;59745;52.924;-2.388;2022-09-09T10:01:22;98370.56;;;26.22;34.76
71873;BME280;59745;52.924;-2.388;2022-09-09T10:03:50;98370.02;;;26.06;35.11
71873;BME280;59745;52.924;-2.388;2022-09-09T10:06:13;98368.73;;;26.27;35.14
71873;BME280;59745;52.924;-2.388;2022-09-09T10:08:44;98372.38;;;25.96;34.28
71873;BME280;59745;52.924;-2.388;2022-09-09T10:11:21;98371.48;;;26.34;34.02
71873;BME280;59745;52.924;-2.388;2022-09-09T10:13:36;98373.35;;;26.45;33.71
71873;BME280;59745;52.924;-2.388;2022-09-09T10:16:06;98374.84;;;26.23;33.81
71873;BME280;59745;52.924;-2.388;2022-09-09T10:20:54;98379.16;;;26.15;34.30
71873;BME280;59745;52.924;-2.388;2022-09-09T10:23:22;98378.70;;;26.80;33.65
71873;BME280;59745;52.924;-2.388;2022-09-09T10:25:49;98380.93;;;26.98;33.68
71873;BME280;59745;52.924;-2.388;2022-09-09T10:28:21;98385.08;;;26.67;34.03
71873;BME280;59745;52.924;-2.388;2022-09-09T10:30:31;98385.48;;;26.87;34.26
71873;BME280;59745;52.924;-2.388;2022-09-09T10:32:58;98385.70;;;26.46;34.65
71873;BME280;59745;52.924;-2.388;2022-09-09T10:35:25;98390.83;;;26.63;33.50
71873;BME280;59745;52.924;-2.388;2022-09-09T10:38:00;98394.28;;;26.78;33.10
71873;BME280;59745;52.924;-2.388;2022-09-09T10:40:18;98392.98;;;26.71;33.27
71873;BME280;59745;52.924;-2.388;2022-09-09T10:42:34;98394.92;;;26.64;33.61
71873;BME280;59745;52.924;-2.388;2022-09-09T10:45:10;98396.28;;;26.25;33.84
71873;BME280;59745;52.924;-2.388;2022-09-09T10:47:41;98393.40;;;26.41;34.05
71873;BME280;59745;52.924;-2.388;2022-09-09T10:52:22;98401.07;;;26.38;33.41
71873;BME280;59745;52.924;-2.388;2022-09-09T10:54:53;98401.51;;;26.93;33.07
71873;BME280;59745;52.924;-2.388;2022-09-09T10:57:12;98401.66;;;27.14;32.94
71873;BME280;59745;52.924;-2.388;2022-09-09T10:59:36;98400.08;;;27.40;33.32
71873;BME280;59745;52.924;-2.388;2022-09-09T11:02:00;98401.10;;;27.32;31.69
71873;BME280;59745;52.924;-2.388;2022-09-09T11:04:26;98400.53;;;27.49;32.47
71873;BME280;59745;52.924;-2.388;2022-09-09T11:06:52;98401.87;;;27.56;33.53
71873;BME280;59745;52.924;-2.388;2022-09-09T11:09:17;98403.22;;;27.97;32.20
71873;BME280;59745;52.924;-2.388;2022-09-09T11:11:44;98402.58;;;28.08;30.76
71873;BME280;59745;52.924;-2.388;2022-09-09T11:14:10;98400.11;;;27.74;29.71
71873;BME280;59745;52.924;-2.388;2022-09-09T11:16:35;98400.36;;;28.12;33.31
71873;BME280;59745;52.924;-2.388;2022-09-09T11:18:59;98400.25;;;28.46;31.34
71873;BME280;59745;52.924;-2.388;2022-09-09T11:21:24;98404.93;;;28.80;29.98
71873;BME280;59745;52.924;-2.388;2022-09-09T11:23:50;98410.50;;;28.33;29.16
71873;BME280;59745;52.924;-2.388;2022-09-09T11:26:16;98413.81;;;28.58;29.31
71873;BME280;59745;52.924;-2.388;2022-09-09T11:28:48;98417.94;;;28.71;29.48
71873;BME280;59745;52.924;-2.388;2022-09-09T11:31:15;98419.73;;;28.61;30.14
71873;BME280;59745;52.924;-2.388;2022-09-09T11:33:39;98420.71;;;28.92;30.13
71873;BME280;59745;52.924;-2.388;2022-09-09T11:36:03;98413.24;;;29.04;29.16
71873;BME280;59745;52.924;-2.388;2022-09-09T11:38:23;98412.32;;;28.99;29.67
71873;BME280;59745;52.924;-2.388;2022-09-09T11:40:45;98416.56;;;28.56;29.73
71873;BME280;59745;52.924;-2.388;2022-09-09T11:43:12;98414.84;;;28.49;28.59
71873;BME280;59745;52.924;-2.388;2022-09-09T11:45:36;98415.99;;;28.95;30.02
71873;BME280;59745;52.924;-2.388;2022-09-09T11:48:03;98417.85;;;28.63;29.88
71873;BME280;59745;52.924;-2.388;2022-09-09T11:50:31;98419.55;;;29.02;29.53
71873;BME280;59745;52.924;-2.388;2022-09-09T11:53:03;98420.04;;;28.62;29.10
71873;BME280;59745;52.924;-2.388;2022-09-09T11:55:24;98418.76;;;28.75;30.92
71873;BME280;59745;52.924;-2.388;2022-09-09T11:57:44;98420.75;;;28.89;31.16
71873;BME280;59745;52.924;-2.388;2022-09-09T12:02:34;98414.40;;;29.09;31.55
71873;BME280;59745;52.924;-2.388;2022-09-09T12:05:02;98414.49;;;29.56;31.59
71873;BME280;59745;52.924;-2.388;2022-09-09T12:07:31;98419.54;;;29.62;32.11
71873;BME280;59745;52.924;-2.388;2022-09-09T12:09:55;98415.95;;;29.72;31.62
71873;BME280;59745;52.924;-2.388;2022-09-09T12:12:26;98417.35;;;29.88;28.51
71873;BME280;59745;52.924;-2.388;2022-09-09T12:14:54;98414.56;;;30.26;29.25
71873;BME280;59745;52.924;-2.388;2022-09-09T12:19:33;98418.44;;;29.83;27.31
71873;BME280;59745;52.924;-2.388;2022-09-09T12:22:05;98419.53;;;29.34;28.16
71873;BME280;59745;52.924;-2.388;2022-09-09T12:24:32;98416.55;;;29.69;27.44
71873;BME280;59745;52.924;-2.388;2022-09-09T12:26:56;98418.55;;;29.77;27.99
71873;BME280;59745;52.924;-2.388;2022-09-09T12:29:24;98421.30;;;29.37;28.06
71873;BME280;59745;52.924;-2.388;2022-09-09T12:31:46;98423.35;;;29.27;28.21
71873;BME280;59745;52.924;-2.388;2022-09-09T12:34:11;98424.95;;;29.23;28.39
71873;BME280;59745;52.924;-2.388;2022-09-09T12:36:32;98426.30;;;29.54;28.37
71873;BME280;59745;52.924;-2.388;2022-09-09T12:39:08;98424.32;;;29.05;28.02
71873;BME280;59745;52.924;-2.388;2022-09-09T12:41:25;98425.74;;;29.51;27.54
71873;BME280;59745;52.924;-2.388;2022-09-09T12:43:49;98428.14;;;29.02;27.28
71873;BME280;59745;52.924;-2.388;2022-09-09T12:46:22;98433.57;;;28.70;27.50
71873;BME280;59745;52.924;-2.388;2022-09-09T12:48:40;98433.00;;;27.94;29.64
71873;BME280;59745;52.924;-2.388;2022-09-09T12:51:16;98434.58;;;28.00;28.72
71873;BME280;59745;52.924;-2.388;2022-09-09T12:53:32;98437.96;;;28.42;29.31